sensor_id;sensor_type;location;lat;lon;timestamp;P1;durP1;ratioP1;P2;durP2;ratioP2
62071;SDS011;48031;48.542;13.232;2022-09-13T00:01:34;6.88;;;4.80;;
62071;SDS011;48031;48.542;13.232;2022-09-13T00:04:01;8.10;;;4.47;;
62071;SDS011;48031;48.542;13.232;2022-09-13T00:06:29;6.78;;;4.68;;
62071;SDS011;48031;48.542;13.232;2022-09-13T00:08:56;5.88;;;4.25;;
62071;SDS011;48031;48.542;13.232;2022-09-13T00:11:25;6.78;;;4.68;;
62071;SDS011;48031;48.542;13.232;2022-09-13T00:13:53;6.55;;;4.30;;
62071;SDS011;48031;48.542;13.232;2022-09-13T00:16:23;4.22;;;2.88;;
62071;SDS011;48031;48.542;13.232;2022-09-13T00:18:52;6.05;;;3.03;;
62071;SDS011;48031;48.542;13.232;2022-09-13T00:21:20;4.60;;;3.30;;
62071;SDS011;48031;48.542;13.232;2022-09-13T00:23:49;5.18;;;3.22;;
62071;SDS011;48031;48.542;13.232;2022-09-13T00:26:18;5.85;;;3.33;;
62071;SDS011;48031;48.542;13.232;2022-09-13T00:28:49;6.00;;;3.38;;
62071;SDS011;48031;48.542;13.232;2022-09-13T00:31:17;4.03;;;2.90;;
62071;SDS011;48031;48.542;13.232;2022-09-13T00:33:45;4.47;;;3.00;;
62071;SDS011;48031;48.542;13.232;2022-09-13T00:36:12;4.18;;;3.17;;
62071;SDS011;48031;48.542;13.232;2022-09-13T00:38:41;7.82;;;3.45;;
62071;SDS011;48031;48.542;13.232;2022-09-13T00:41:10;4.63;;;3.20;;
62071;SDS011;48031;48.542;13.232;2022-09-13T00:46:12;7.00;;;4.05;;
62071;SDS011;48031;48.542;13.232;2022-09-13T00:48:41;5.38;;;3.50;;
62071;SDS011;48031;48.542;13.232;2022-09-13T00:51:10;5.65;;;3.38;;
62071;SDS011;48031;48.542;13.232;2022-09-13T00:53:38;5.22;;;3.30;;
62071;SDS011;48031;48.542;13.232;2022-09-13T00:56:14;5.28;;;3.60;;
62071;SDS011;48031;48.542;13.232;2022-09-13T00:58:51;4.63;;;2.95;;
62071;SDS011;48031;48.542;13.232;2022-09-13T01:01:22;5.72;;;3.30;;
62071;SDS011;48031;48.542;13.232;2022-09-13T01:03:52;5.78;;;3.10;;
62071;SDS011;48031;48.542;13.232;2022-09-13T01:06:23;5.00;;;3.47;;
62071;SDS011;48031;48.542;13.232;2022-09-13T01:08:54;4.20;;;3.17;;
62071;SDS011;48031;48.542;13.232;2022-09-13T01:11:26;5.95;;;3.90;;
62071;SDS011;48031;48.542;13.232;2022-09-13T01:13:55;4.70;;;3.33;;
62071;SDS011;48031;48.542;13.232;2022-09-13T01:16:23;5.90;;;3.60;;
62071;SDS011;48031;48.542;13.232;2022-09-13T01:18:51;6.43;;;3.42;;
62071;SDS011;48031;48.542;13.232;2022-09-13T01:21:27;5.80;;;3.80;;
62071;SDS011;48031;48.542;13.232;2022-09-13T01:24:20;5.03;;;3.33;;
62071;SDS011;48031;48.542;13.232;2022-09-13T01:33:01;5.90;;;3.80;;
62071;SDS011;48031;48.542;13.232;2022-09-13T01:46:41;5.47;;;2.92;;
62071;SDS011;48031;48.542;13.232;2022-09-13T01:51:48;5.25;;;3.70;;
62071;SDS011;48031;48.542;13.232;2022-09-13T01:59:59;4.82;;;3.53;;
62071;SDS011;48031;48.542;13.232;2022-09-13T02:08:22;8.90;;;4.03;;
62071;SDS011;48031;48.542;13.232;2022-09-13T02:10:59;6.05;;;3.67;;
62071;SDS011;48031;48.542;13.232;2022-09-13T02:13:36;6.53;;;3.42;;
62071;SDS011;48031;48.542;13.232;2022-09-13T02:16:15;4.90;;;3.30;;
62071;SDS011;48031;48.542;13.232;2022-09-13T02:18:49;5.35;;;3.40;;
62071;SDS011;48031;48.542;13.232;2022-09-13T02:21:22;5.10;;;3.28;;
62071;SDS011;48031;48.542;13.232;2022-09-13T02:24:00;5.80;;;3.70;;
62071;SDS011;48031;48.542;13.232;2022-09-13T02:26:28;4.53;;;3.20;;
62071;SDS011;48031;48.542;13.232;2022-09-13T02:28:57;5.88;;;3.72;;
62071;SDS011;48031;48.542;13.232;2022-09-13T02:31:35;5.75;;;3.13;;
62071;SDS011;48031;48.542;13.232;2022-09-13T02:34:08;5.47;;;3.40;;
62071;SDS011;48031;48.542;13.232;2022-09-13T02:36:37;6.45;;;3.63;;
62071;SDS011;48031;48.542;13.232;2022-09-13T02:39:08;4.97;;;3.58;;
62071;SDS011;48031;48.542;13.232;2022-09-13T02:41:49;5.07;;;3.22;;
62071;SDS011;48031;48.542;13.232;2022-09-13T02:44:21;4.90;;;3.15;;
62071;SDS011;48031;48.542;13.232;2022-09-13T02:49:24;6.47;;;3.78;;
62071;SDS011;48031;48.542;13.232;2022-09-13T02:59:22;5.68;;;3.47;;
62071;SDS011;48031;48.542;13.232;2022-09-13T03:01:58;5.38;;;3.40;;
62071;SDS011;48031;48.542;13.232;2022-09-13T03:04:29;4.60;;;3.45;;
62071;SDS011;48031;48.542;13.232;2022-09-13T03:06:56;5.63;;;3.20;;
62071;SDS011;48031;48.542;13.232;2022-09-13T03:09:23;4.72;;;3.55;;
62071;SDS011;48031;48.542;13.232;2022-09-13T03:14:54;4.38;;;3.13;;
62071;SDS011;48031;48.542;13.232;2022-09-13T03:20:02;6.13;;;3.72;;
62071;SDS011;48031;48.542;13.232;2022-09-13T03:27:53;5.72;;;3.22;;
62071;SDS011;48031;48.542;13.232;2022-09-13T03:30:26;6.00;;;3.53;;
62071;SDS011;48031;48.542;13.232;2022-09-13T03:32:57;7.13;;;4.18;;
62071;SDS011;48031;48.542;13.232;2022-09-13T03:35:54;6.82;;;3.55;;
62071;SDS011;48031;48.542;13.232;2022-09-13T03:38:29;5.43;;;3.75;;
62071;SDS011;48031;48.542;13.232;2022-09-13T03:41:14;5.90;;;3.55;;
62071;SDS011;48031;48.542;13.232;2022-09-13T03:43:52;7.88;;;4.07;;
62071;SDS011;48031;48.542;13.232;2022-09-13T03:48:54;6.45;;;4.35;;
62071;SDS011;48031;48.542;13.232;2022-09-13T03:51:23;8.00;;;4.30;;
62071;SDS011;48031;48.542;13.232;2022-09-13T03:53:54;8.43;;;4.40;;
62071;SDS011;48031;48.542;13.232;2022-09-13T03:56:24;8.95;;;4.28;;
62071;SDS011;48031;48.542;13.232;2022-09-13T03:58:52;8.90;;;4.53;;
62071;SDS011;48031;48.542;13.232;2022-09-13T04:01:20;7.70;;;4.32;;
62071;SDS011;48031;48.542;13.232;2022-09-13T04:03:49;6.22;;;3.50;;
62071;SDS011;48031;48.542;13.232;2022-09-13T04:06:22;5.47;;;3.35;;
62071;SDS011;48031;48.542;13.232;2022-09-13T04:08:49;4.90;;;3.55;;
62071;SDS011;48031;48.542;13.232;2022-09-13T04:11:16;4.72;;;3.30;;
62071;SDS011;48031;48.542;13.232;2022-09-13T04:13:43;5.10;;;3.42;;
62071;SDS011;48031;48.542;13.232;2022-09-13T04:16:10;4.97;;;3.35;;
62071;SDS011;48031;48.542;13.232;2022-09-13T04:18:38;5.63;;;3.88;;
62071;SDS011;48031;48.542;13.232;2022-09-13T04:21:05;5.80;;;3.70;;
62071;SDS011;48031;48.542;13.232;2022-09-13T04:23:32;9.02;;;4.22;;
62071;SDS011;48031;48.542;13.232;2022-09-13T04:26:02;5.32;;;3.88;;
62071;SDS011;48031;48.542;13.232;2022-09-13T04:28:30;7.97;;;4.63;;
62071;SDS011;48031;48.542;13.232;2022-09-13T04:30:57;7.40;;;5.10;;
62071;SDS011;48031;48.542;13.232;2022-09-13T04:33:25;8.70;;;5.10;;
62071;SDS011;48031;48.542;13.232;2022-09-13T04:35:58;8.10;;;4.65;;
62071;SDS011;48031;48.542;13.232;2022-09-13T04:38:26;7.25;;;4.28;;
62071;SDS011;48031;48.542;13.232;2022-09-13T04:40:54;4.60;;;3.40;;
62071;SDS011;48031;48.542;13.232;2022-09-13T04:43:22;6.30;;;3.78;;
62071;SDS011;48031;48.542;13.232;2022-09-13T04:45:49;5.38;;;3.75;;
62071;SDS011;48031;48.542;13.232;2022-09-13T04:48:17;6.63;;;3.72;;
62071;SDS011;48031;48.542;13.232;2022-09-13T04:50:45;5.03;;;3.53;;
62071;SDS011;48031;48.542;13.232;2022-09-13T04:53:13;6.15;;;3.85;;
62071;SDS011;48031;48.542;13.232;2022-09-13T04:55:40;5.57;;;3.78;;
62071;SDS011;48031;48.542;13.232;2022-09-13T04:58:07;7.03;;;4.20;;
62071;SDS011;48031;48.542;13.232;2022-09-13T05:00:34;6.50;;;4.13;;
62071;SDS011;48031;48.542;13.232;2022-09-13T05:03:02;7.65;;;4.38;;
62071;SDS011;48031;48.542;13.232;2022-09-13T05:05:29;7.47;;;4.35;;
62071;SDS011;48031;48.542;13.232;2022-09-13T05:07:58;7.90;;;4.28;;
62071;SDS011;48031;48.542;13.232;2022-09-13T05:10:25;6.80;;;3.90;;
62071;SDS011;48031;48.542;13.232;2022-09-13T05:12:52;6.60;;;3.40;;
62071;SDS011;48031;48.542;13.232;2022-09-13T05:15:20;6.03;;;3.53;;
62071;SDS011;48031;48.542;13.232;2022-09-13T05:17:47;5.45;;;3.75;;
62071;SDS011;48031;48.542;13.232;2022-09-13T05:20:14;4.38;;;3.30;;
62071;SDS011;48031;48.542;13.232;2022-09-13T05:22:41;4.75;;;3.22;;
62071;SDS011;48031;48.542;13.232;2022-09-13T05:25:08;6.35;;;3.85;;
62071;SDS011;48031;48.542;13.232;2022-09-13T05:27:35;7.13;;;4.47;;
62071;SDS011;48031;48.542;13.232;2022-09-13T05:30:03;7.38;;;4.70;;
62071;SDS011;48031;48.542;13.232;2022-09-13T05:32:31;7.78;;;5.20;;
62071;SDS011;48031;48.542;13.232;2022-09-13T05:34:58;7.35;;;4.78;;
62071;SDS011;48031;48.542;13.232;2022-09-13T05:37:25;8.48;;;4.40;;
62071;SDS011;48031;48.542;13.232;2022-09-13T05:39:52;7.97;;;4.50;;
62071;SDS011;48031;48.542;13.232;2022-09-13T05:42:37;6.55;;;3.90;;
62071;SDS011;48031;48.542;13.232;2022-09-13T05:45:04;6.30;;;3.50;;
62071;SDS011;48031;48.542;13.232;2022-09-13T05:47:32;4.22;;;3.40;;
62071;SDS011;48031;48.542;13.232;2022-09-13T05:49:59;5.43;;;3.10;;
62071;SDS011;48031;48.542;13.232;2022-09-13T05:52:52;6.10;;;3.88;;
62071;SDS011;48031;48.542;13.232;2022-09-13T05:55:22;5.97;;;3.63;;
62071;SDS011;48031;48.542;13.232;2022-09-13T05:57:49;5.40;;;3.17;;
62071;SDS011;48031;48.542;13.232;2022-09-13T06:00:16;5.53;;;3.83;;
62071;SDS011;48031;48.542;13.232;2022-09-13T06:02:43;4.88;;;3.53;;
62071;SDS011;48031;48.542;13.232;2022-09-13T06:05:11;4.43;;;3.38;;
62071;SDS011;48031;48.542;13.232;2022-09-13T06:07:38;6.95;;;3.80;;
62071;SDS011;48031;48.542;13.232;2022-09-13T06:10:07;6.43;;;3.92;;
62071;SDS011;48031;48.542;13.232;2022-09-13T06:12:35;6.53;;;4.32;;
62071;SDS011;48031;48.542;13.232;2022-09-13T06:15:03;5.18;;;3.63;;
62071;SDS011;48031;48.542;13.232;2022-09-13T06:17:30;8.05;;;3.78;;
62071;SDS011;48031;48.542;13.232;2022-09-13T06:19:57;8.75;;;4.50;;
62071;SDS011;48031;48.542;13.232;2022-09-13T06:22:25;9.00;;;4.35;;
62071;SDS011;48031;48.542;13.232;2022-09-13T06:24:58;6.85;;;4.88;;
62071;SDS011;48031;48.542;13.232;2022-09-13T06:27:25;8.55;;;4.40;;
62071;SDS011;48031;48.542;13.232;2022-09-13T06:29:54;8.43;;;4.57;;
62071;SDS011;48031;48.542;13.232;2022-09-13T06:32:21;6.97;;;5.00;;
62071;SDS011;48031;48.542;13.232;2022-09-13T06:34:48;7.07;;;4.25;;
62071;SDS011;48031;48.542;13.232;2022-09-13T06:37:15;7.15;;;4.95;;
62071;SDS011;48031;48.542;13.232;2022-09-13T06:39:42;7.15;;;4.20;;
62071;SDS011;48031;48.542;13.232;2022-09-13T06:42:09;7.00;;;4.65;;
62071;SDS011;48031;48.542;13.232;2022-09-13T06:44:38;7.28;;;4.65;;
62071;SDS011;48031;48.542;13.232;2022-09-13T06:47:05;6.60;;;4.38;;
62071;SDS011;48031;48.542;13.232;2022-09-13T06:49:32;9.48;;;5.57;;
62071;SDS011;48031;48.542;13.232;2022-09-13T06:52:00;12.90;;;6.28;;
62071;SDS011;48031;48.542;13.232;2022-09-13T06:54:28;8.98;;;5.55;;
62071;SDS011;48031;48.542;13.232;2022-09-13T06:56:55;6.70;;;4.80;;
62071;SDS011;48031;48.542;13.232;2022-09-13T06:59:22;7.35;;;4.95;;
62071;SDS011;48031;48.542;13.232;2022-09-13T07:01:50;7.85;;;4.93;;
62071;SDS011;48031;48.542;13.232;2022-09-13T07:04:17;8.00;;;5.60;;
62071;SDS011;48031;48.542;13.232;2022-09-13T07:06:45;8.70;;;5.53;;
62071;SDS011;48031;48.542;13.232;2022-09-13T07:09:18;7.53;;;4.97;;
62071;SDS011;48031;48.542;13.232;2022-09-13T07:11:47;7.97;;;4.95;;
62071;SDS011;48031;48.542;13.232;2022-09-13T07:14:18;6.90;;;4.57;;
62071;SDS011;48031;48.542;13.232;2022-09-13T07:16:47;6.82;;;4.95;;
62071;SDS011;48031;48.542;13.232;2022-09-13T07:19:15;8.52;;;5.30;;
62071;SDS011;48031;48.542;13.232;2022-09-13T07:21:43;6.68;;;4.80;;
62071;SDS011;48031;48.542;13.232;2022-09-13T07:24:11;7.03;;;4.75;;
62071;SDS011;48031;48.542;13.232;2022-09-13T07:26:38;14.90;;;7.88;;
62071;SDS011;48031;48.542;13.232;2022-09-13T07:29:06;12.50;;;8.77;;
62071;SDS011;48031;48.542;13.232;2022-09-13T07:31:37;12.52;;;8.60;;
62071;SDS011;48031;48.542;13.232;2022-09-13T07:34:06;8.50;;;5.70;;
62071;SDS011;48031;48.542;13.232;2022-09-13T07:36:36;8.07;;;5.68;;
62071;SDS011;48031;48.542;13.232;2022-09-13T07:39:04;6.18;;;5.10;;
62071;SDS011;48031;48.542;13.232;2022-09-13T07:41:35;6.93;;;5.35;;
62071;SDS011;48031;48.542;13.232;2022-09-13T07:44:02;7.45;;;5.32;;
62071;SDS011;48031;48.542;13.232;2022-09-13T07:46:30;8.80;;;6.57;;
62071;SDS011;48031;48.542;13.232;2022-09-13T07:48:59;8.45;;;6.40;;
62071;SDS011;48031;48.542;13.232;2022-09-13T07:51:28;7.30;;;5.60;;
62071;SDS011;48031;48.542;13.232;2022-09-13T07:54:01;9.05;;;5.82;;
62071;SDS011;48031;48.542;13.232;2022-09-13T07:56:33;8.90;;;5.90;;
62071;SDS011;48031;48.542;13.232;2022-09-13T07:59:02;6.28;;;5.00;;
62071;SDS011;48031;48.542;13.232;2022-09-13T08:01:38;8.90;;;6.95;;
62071;SDS011;48031;48.542;13.232;2022-09-13T08:04:07;8.05;;;5.28;;
62071;SDS011;48031;48.542;13.232;2022-09-13T08:06:40;7.72;;;5.55;;
62071;SDS011;48031;48.542;13.232;2022-09-13T08:09:09;7.30;;;5.47;;
62071;SDS011;48031;48.542;13.232;2022-09-13T08:11:37;8.82;;;6.07;;
62071;SDS011;48031;48.542;13.232;2022-09-13T08:14:10;7.15;;;5.80;;
62071;SDS011;48031;48.542;13.232;2022-09-13T08:16:40;7.20;;;5.80;;
62071;SDS011;48031;48.542;13.232;2022-09-13T08:19:09;10.27;;;7.38;;
62071;SDS011;48031;48.542;13.232;2022-09-13T08:21:38;8.35;;;6.07;;
62071;SDS011;48031;48.542;13.232;2022-09-13T08:24:07;7.60;;;5.60;;
62071;SDS011;48031;48.542;13.232;2022-09-13T08:26:38;5.50;;;4.57;;
62071;SDS011;48031;48.542;13.232;2022-09-13T08:29:06;6.88;;;5.18;;
62071;SDS011;48031;48.542;13.232;2022-09-13T08:31:33;8.27;;;5.93;;
62071;SDS011;48031;48.542;13.232;2022-09-13T08:34:01;6.75;;;5.53;;
62071;SDS011;48031;48.542;13.232;2022-09-13T08:36:28;5.63;;;4.50;;
62071;SDS011;48031;48.542;13.232;2022-09-13T08:38:57;4.93;;;4.25;;
62071;SDS011;48031;48.542;13.232;2022-09-13T08:44:42;7.22;;;5.53;;
62071;SDS011;48031;48.542;13.232;2022-09-13T08:46:53;10.95;;;7.40;;
62071;SDS011;48031;48.542;13.232;2022-09-13T08:49:25;7.13;;;5.88;;
62071;SDS011;48031;48.542;13.232;2022-09-13T08:51:57;8.13;;;6.28;;
62071;SDS011;48031;48.542;13.232;2022-09-13T08:54:47;6.63;;;5.57;;
62071;SDS011;48031;48.542;13.232;2022-09-13T08:57:43;6.40;;;5.00;;
62071;SDS011;48031;48.542;13.232;2022-09-13T09:07:41;6.50;;;5.47;;
62071;SDS011;48031;48.542;13.232;2022-09-13T09:10:18;6.30;;;5.07;;
62071;SDS011;48031;48.542;13.232;2022-09-13T09:12:50;5.22;;;4.72;;
62071;SDS011;48031;48.542;13.232;2022-09-13T09:15:20;5.93;;;5.10;;
62071;SDS011;48031;48.542;13.232;2022-09-13T09:17:50;5.47;;;4.97;;
62071;SDS011;48031;48.542;13.232;2022-09-13T09:21:02;5.35;;;4.15;;
62071;SDS011;48031;48.542;13.232;2022-09-13T09:23:22;5.50;;;4.70;;
62071;SDS011;48031;48.542;13.232;2022-09-13T09:26:20;4.90;;;4.30;;
62071;SDS011;48031;48.542;13.232;2022-09-13T09:28:57;5.90;;;5.30;;
62071;SDS011;48031;48.542;13.232;2022-09-13T09:37:16;5.00;;;4.55;;
62071;SDS011;48031;48.542;13.232;2022-09-13T09:39:51;4.10;;;3.70;;
62071;SDS011;48031;48.542;13.232;2022-09-13T09:42:21;3.53;;;3.22;;
62071;SDS011;48031;48.542;13.232;2022-09-13T09:44:56;7.45;;;6.35;;
62071;SDS011;48031;48.542;13.232;2022-09-13T09:47:28;4.45;;;4.05;;
62071;SDS011;48031;48.542;13.232;2022-09-13T09:50:01;5.93;;;4.70;;
62071;SDS011;48031;48.542;13.232;2022-09-13T09:52:39;4.10;;;3.70;;
62071;SDS011;48031;48.542;13.232;2022-09-13T09:55:13;4.85;;;4.28;;
62071;SDS011;48031;48.542;13.232;2022-09-13T09:57:50;4.47;;;4.05;;
62071;SDS011;48031;48.542;13.232;2022-09-13T10:00:20;4.20;;;3.80;;
62071;SDS011;48031;48.542;13.232;2022-09-13T10:02:51;3.95;;;3.55;;
62071;SDS011;48031;48.542;13.232;2022-09-13T10:05:20;3.00;;;2.78;;
62071;SDS011;48031;48.542;13.232;2022-09-13T10:07:56;2.78;;;2.58;;
62071;SDS011;48031;48.542;13.232;2022-09-13T10:13:03;3.30;;;3.00;;
62071;SDS011;48031;48.542;13.232;2022-09-13T10:15:34;3.17;;;2.67;;
62071;SDS011;48031;48.542;13.232;2022-09-13T10:18:02;4.07;;;3.67;;
62071;SDS011;48031;48.542;13.232;2022-09-13T10:23:32;4.55;;;3.88;;
62071;SDS011;48031;48.542;13.232;2022-09-13T10:26:05;3.13;;;2.88;;
62071;SDS011;48031;48.542;13.232;2022-09-13T10:28:40;2.95;;;2.75;;
62071;SDS011;48031;48.542;13.232;2022-09-13T10:31:09;2.63;;;2.42;;
62071;SDS011;48031;48.542;13.232;2022-09-13T10:33:44;3.53;;;2.65;;
62071;SDS011;48031;48.542;13.232;2022-09-13T10:36:42;3.08;;;2.78;;
62071;SDS011;48031;48.542;13.232;2022-09-13T10:39:21;3.35;;;2.88;;
62071;SDS011;48031;48.542;13.232;2022-09-13T10:42:05;2.95;;;2.75;;
62071;SDS011;48031;48.542;13.232;2022-09-13T10:47:21;2.60;;;2.40;;
62071;SDS011;48031;48.542;13.232;2022-09-13T10:50:10;2.50;;;2.30;;
62071;SDS011;48031;48.542;13.232;2022-09-13T10:57:45;2.33;;;2.20;;
62071;SDS011;48031;48.542;13.232;2022-09-13T11:00:18;2.50;;;2.30;;
62071;SDS011;48031;48.542;13.232;2022-09-13T11:05:40;2.70;;;2.50;;
62071;SDS011;48031;48.542;13.232;2022-09-13T11:08:18;2.85;;;2.65;;
62071;SDS011;48031;48.542;13.232;2022-09-13T11:13:38;3.15;;;2.47;;
62071;SDS011;48031;48.542;13.232;2022-09-13T11:24:56;2.95;;;2.70;;
62071;SDS011;48031;48.542;13.232;2022-09-13T11:30:18;2.45;;;2.25;;
62071;SDS011;48031;48.542;13.232;2022-09-13T11:35:42;2.33;;;2.13;;
62071;SDS011;48031;48.542;13.232;2022-09-13T11:49:21;3.63;;;1.88;;
62071;SDS011;48031;48.542;13.232;2022-09-13T11:55:24;2.70;;;2.20;;
62071;SDS011;48031;48.542;13.232;2022-09-13T11:57:55;1.92;;;1.83;;
62071;SDS011;48031;48.542;13.232;2022-09-13T12:00:30;2.22;;;2.10;;
62071;SDS011;48031;48.542;13.232;2022-09-13T12:06:04;2.47;;;2.28;;
62071;SDS011;48031;48.542;13.232;2022-09-13T12:08:39;1.88;;;1.77;;
62071;SDS011;48031;48.542;13.232;2022-09-13T12:11:14;1.70;;;1.60;;
62071;SDS011;48031;48.542;13.232;2022-09-13T12:13:48;1.80;;;1.70;;
62071;SDS011;48031;48.542;13.232;2022-09-13T12:16:34;1.80;;;1.70;;
62071;SDS011;48031;48.542;13.232;2022-09-13T12:21:42;1.83;;;1.67;;
62071;SDS011;48031;48.542;13.232;2022-09-13T12:24:14;2.00;;;1.75;;
62071;SDS011;48031;48.542;13.232;2022-09-13T12:26:51;2.45;;;1.67;;
62071;SDS011;48031;48.542;13.232;2022-09-13T12:32:10;1.88;;;1.60;;
62071;SDS011;48031;48.542;13.232;2022-09-13T12:34:45;2.38;;;1.80;;
62071;SDS011;48031;48.542;13.232;2022-09-13T12:39:55;2.10;;;1.90;;
62071;SDS011;48031;48.542;13.232;2022-09-13T12:42:47;2.88;;;2.00;;
62071;SDS011;48031;48.542;13.232;2022-09-13T12:58:34;2.80;;;2.50;;
62071;SDS011;48031;48.542;13.232;2022-09-13T13:03:57;3.15;;;2.40;;
62071;SDS011;48031;48.542;13.232;2022-09-13T13:06:30;2.92;;;1.95;;
62071;SDS011;48031;48.542;13.232;2022-09-13T13:11:54;2.38;;;2.15;;
62071;SDS011;48031;48.542;13.232;2022-09-13T13:14:42;2.70;;;2.30;;
62071;SDS011;48031;48.542;13.232;2022-09-13T13:23:18;2.63;;;2.28;;
62071;SDS011;48031;48.542;13.232;2022-09-13T13:33:51;4.17;;;2.20;;
62071;SDS011;48031;48.542;13.232;2022-09-13T13:36:29;3.35;;;3.03;;
62071;SDS011;48031;48.542;13.232;2022-09-13T13:41:56;5.15;;;3.47;;
62071;SDS011;48031;48.542;13.232;2022-09-13T13:55:03;2.83;;;2.60;;
62071;SDS011;48031;48.542;13.232;2022-09-13T13:57:57;6.68;;;4.20;;
62071;SDS011;48031;48.542;13.232;2022-09-13T14:00:30;3.47;;;2.80;;
62071;SDS011;48031;48.542;13.232;2022-09-13T14:13:42;3.65;;;2.47;;
62071;SDS011;48031;48.542;13.232;2022-09-13T14:21:33;2.95;;;2.00;;
62071;SDS011;48031;48.542;13.232;2022-09-13T14:26:45;2.83;;;2.35;;
62071;SDS011;48031;48.542;13.232;2022-09-13T14:29:19;2.97;;;1.98;;
62071;SDS011;48031;48.542;13.232;2022-09-13T14:31:48;3.05;;;2.42;;
62071;SDS011;48031;48.542;13.232;2022-09-13T14:34:26;2.38;;;2.15;;
62071;SDS011;48031;48.542;13.232;2022-09-13T14:36:57;2.30;;;2.10;;
62071;SDS011;48031;48.542;13.232;2022-09-13T14:39:26;2.85;;;2.55;;
62071;SDS011;48031;48.542;13.232;2022-09-13T14:41:58;2.25;;;2.05;;
62071;SDS011;48031;48.542;13.232;2022-09-13T14:44:27;2.85;;;2.20;;
62071;SDS011;48031;48.542;13.232;2022-09-13T14:47:29;2.92;;;2.15;;
62071;SDS011;48031;48.542;13.232;2022-09-13T14:49:59;2.53;;;2.22;;
62071;SDS011;48031;48.542;13.232;2022-09-13T14:52:37;4.25;;;2.80;;
62071;SDS011;48031;48.542;13.232;2022-09-13T14:55:15;2.78;;;2.40;;
62071;SDS011;48031;48.542;13.232;2022-09-13T14:57:51;5.03;;;2.30;;
62071;SDS011;48031;48.542;13.232;2022-09-13T15:00:23;2.45;;;2.13;;
62071;SDS011;48031;48.542;13.232;2022-09-13T15:02:57;2.90;;;2.60;;
62071;SDS011;48031;48.542;13.232;2022-09-13T15:05:26;2.72;;;2.30;;
62071;SDS011;48031;48.542;13.232;2022-09-13T15:07:58;3.90;;;2.38;;
62071;SDS011;48031;48.542;13.232;2022-09-13T15:10:31;4.28;;;3.15;;
62071;SDS011;48031;48.542;13.232;2022-09-13T15:15:39;3.13;;;2.60;;
62071;SDS011;48031;48.542;13.232;2022-09-13T15:23:24;3.85;;;2.40;;
62071;SDS011;48031;48.542;13.232;2022-09-13T15:26:07;2.88;;;2.08;;
62071;SDS011;48031;48.542;13.232;2022-09-13T15:31:19;2.35;;;2.15;;
62071;SDS011;48031;48.542;13.232;2022-09-13T15:33:48;2.30;;;2.03;;
62071;SDS011;48031;48.542;13.232;2022-09-13T15:36:35;3.22;;;2.50;;
62071;SDS011;48031;48.542;13.232;2022-09-13T15:41:39;3.08;;;2.67;;
62071;SDS011;48031;48.542;13.232;2022-09-13T15:44:16;2.97;;;2.40;;
62071;SDS011;48031;48.542;13.232;2022-09-13T15:46:45;3.72;;;2.08;;
62071;SDS011;48031;48.542;13.232;2022-09-13T15:49:18;2.45;;;1.90;;
62071;SDS011;48031;48.542;13.232;2022-09-13T15:54:19;2.67;;;2.00;;
62071;SDS011;48031;48.542;13.232;2022-09-13T15:56:48;2.53;;;2.20;;
62071;SDS011;48031;48.542;13.232;2022-09-13T15:59:19;3.25;;;2.45;;
62071;SDS011;48031;48.542;13.232;2022-09-13T16:01:48;2.58;;;2.38;;
62071;SDS011;48031;48.542;13.232;2022-09-13T16:04:16;2.75;;;2.30;;
62071;SDS011;48031;48.542;13.232;2022-09-13T16:06:44;2.33;;;2.13;;
62071;SDS011;48031;48.542;13.232;2022-09-13T16:09:22;2.67;;;2.30;;
62071;SDS011;48031;48.542;13.232;2022-09-13T16:11:50;2.60;;;2.38;;
62071;SDS011;48031;48.542;13.232;2022-09-13T16:14:18;4.45;;;3.33;;
62071;SDS011;48031;48.542;13.232;2022-09-13T16:16:45;3.95;;;2.88;;
62071;SDS011;48031;48.542;13.232;2022-09-13T16:19:15;2.83;;;2.17;;
62071;SDS011;48031;48.542;13.232;2022-09-13T16:21:47;3.92;;;2.30;;
62071;SDS011;48031;48.542;13.232;2022-09-13T16:24:15;4.18;;;2.80;;
62071;SDS011;48031;48.542;13.232;2022-09-13T16:26:42;3.90;;;2.28;;
62071;SDS011;48031;48.542;13.232;2022-09-13T16:29:10;5.35;;;2.97;;
62071;SDS011;48031;48.542;13.232;2022-09-13T16:31:38;3.20;;;2.83;;
62071;SDS011;48031;48.542;13.232;2022-09-13T16:34:06;3.15;;;2.63;;
62071;SDS011;48031;48.542;13.232;2022-09-13T16:36:34;2.88;;;2.53;;
62071;SDS011;48031;48.542;13.232;2022-09-13T16:39:01;2.97;;;2.67;;
62071;SDS011;48031;48.542;13.232;2022-09-13T16:41:29;3.60;;;2.60;;
62071;SDS011;48031;48.542;13.232;2022-09-13T16:43:56;10.60;;;4.47;;
62071;SDS011;48031;48.542;13.232;2022-09-13T16:46:23;5.97;;;3.80;;
62071;SDS011;48031;48.542;13.232;2022-09-13T16:48:51;6.57;;;4.10;;
62071;SDS011;48031;48.542;13.232;2022-09-13T16:51:20;3.45;;;3.10;;
62071;SDS011;48031;48.542;13.232;2022-09-13T16:53:48;3.33;;;2.50;;
62071;SDS011;48031;48.542;13.232;2022-09-13T16:56:17;2.67;;;2.30;;
62071;SDS011;48031;48.542;13.232;2022-09-13T16:58:47;3.53;;;2.50;;
62071;SDS011;48031;48.542;13.232;2022-09-13T17:01:16;2.20;;;2.00;;
62071;SDS011;48031;48.542;13.232;2022-09-13T17:03:46;3.30;;;3.00;;
62071;SDS011;48031;48.542;13.232;2022-09-13T17:06:18;4.97;;;3.20;;
62071;SDS011;48031;48.542;13.232;2022-09-13T17:08:47;4.85;;;3.17;;
62071;SDS011;48031;48.542;13.232;2022-09-13T17:11:16;3.83;;;3.10;;
62071;SDS011;48031;48.542;13.232;2022-09-13T17:13:45;4.93;;;2.80;;
62071;SDS011;48031;48.542;13.232;2022-09-13T17:16:21;3.78;;;3.35;;
62071;SDS011;48031;48.542;13.232;2022-09-13T17:18:50;2.53;;;2.20;;
62071;SDS011;48031;48.542;13.232;2022-09-13T17:21:18;2.45;;;2.10;;
62071;SDS011;48031;48.542;13.232;2022-09-13T17:23:45;2.55;;;2.10;;
62071;SDS011;48031;48.542;13.232;2022-09-13T17:26:12;2.55;;;1.83;;
62071;SDS011;48031;48.542;13.232;2022-09-13T17:28:39;5.20;;;3.03;;
62071;SDS011;48031;48.542;13.232;2022-09-13T17:31:07;4.40;;;3.00;;
62071;SDS011;48031;48.542;13.232;2022-09-13T17:33:34;5.70;;;3.85;;
62071;SDS011;48031;48.542;13.232;2022-09-13T17:36:05;4.75;;;3.42;;
62071;SDS011;48031;48.542;13.232;2022-09-13T17:38:34;6.25;;;3.83;;
62071;SDS011;48031;48.542;13.232;2022-09-13T17:43:35;2.42;;;2.03;;
62071;SDS011;48031;48.542;13.232;2022-09-13T17:46:03;4.22;;;1.90;;
62071;SDS011;48031;48.542;13.232;2022-09-13T17:48:31;2.20;;;2.00;;
62071;SDS011;48031;48.542;13.232;2022-09-13T17:51:02;2.50;;;2.10;;
62071;SDS011;48031;48.542;13.232;2022-09-13T17:53:35;4.15;;;2.20;;
62071;SDS011;48031;48.542;13.232;2022-09-13T17:56:03;3.78;;;2.15;;
62071;SDS011;48031;48.542;13.232;2022-09-13T17:58:30;3.72;;;1.92;;
62071;SDS011;48031;48.542;13.232;2022-09-13T18:01:02;2.20;;;2.00;;
62071;SDS011;48031;48.542;13.232;2022-09-13T18:03:29;2.25;;;2.05;;
62071;SDS011;48031;48.542;13.232;2022-09-13T18:05:58;3.55;;;2.80;;
62071;SDS011;48031;48.542;13.232;2022-09-13T18:08:26;2.72;;;2.33;;
62071;SDS011;48031;48.542;13.232;2022-09-13T18:10:54;2.05;;;1.92;;
62071;SDS011;48031;48.542;13.232;2022-09-13T18:13:38;2.15;;;1.95;;
62071;SDS011;48031;48.542;13.232;2022-09-13T18:16:07;3.95;;;2.40;;
62071;SDS011;48031;48.542;13.232;2022-09-13T18:18:35;3.03;;;2.60;;
62071;SDS011;48031;48.542;13.232;2022-09-13T18:23:36;4.30;;;3.45;;
62071;SDS011;48031;48.542;13.232;2022-09-13T18:26:05;3.40;;;2.53;;
62071;SDS011;48031;48.542;13.232;2022-09-13T18:28:36;3.45;;;2.80;;
62071;SDS011;48031;48.542;13.232;2022-09-13T18:31:04;3.60;;;2.70;;
62071;SDS011;48031;48.542;13.232;2022-09-13T18:33:32;4.60;;;3.00;;
62071;SDS011;48031;48.542;13.232;2022-09-13T18:38:31;2.78;;;2.40;;